De Ja Bleu — WDI5333 — position and weather

sailwx.info

Track history (hours):
 
Tides and Currents Weather Stations Pressure Air Temp Water Temp Dewpoint Dewpoint Depression Visibility Wind Speed Wind Dir Waves Ship Positions

De Ja Bleu

Owner: PACKARD, WILLIAM H, BAINBRIDGE ISL, WA. More information available from US FCC via Universal Licensing System and Coast Guard Vessel Documentation Center.

Last reported at 2017-Dec-10 19:47 UTC. Time now 2017-Dec-12 06:40 UTC.
Position N 47°39' W 122°20'.

Length 14 m.

Type: Pleasure craft. MMSI: 367707510.

Date/timePositionNaut miles runAvg speedWind from/ knotsBaromVisibWave heightAir tempDewpointWater temp
2017-Dec-10 19:47N 47°39' W 122°20'1 5.5
2017-Dec-10 19:30N 47°39' W 122°22'2 3.2
2017-Dec-10 18:59N 47°40' W 122°24'2 4.8
2017-Dec-10 18:30N 47°42' W 122°26'3 6.9
2017-Dec-10 18:00N 47°45' W 122°28'4 7.3
2017-Dec-10 17:30N 47°49' W 122°28'4 7.7
2017-Dec-10 17:00N 47°53' W 122°30'4 0.1
2017-Dec-08 20:53N 47°56' W 122°33'3 8.4
2017-Dec-08 20:30N 47°53' W 122°30'4 7.5
2017-Dec-08 20:00N 47°50' W 122°28'5 7.2
2017-Dec-08 19:15N 47°44' W 122°28'2 7.4
2017-Dec-08 18:58N 47°42' W 122°28'5 7.2
2017-Dec-08 18:13N 47°37' W 122°28'1 6.5
2017-Dec-08 18:01N 47°36' W 122°30'  
Track history (hours):
 
Tides and Currents Weather Stations Pressure Air Temp Water Temp Dewpoint Dewpoint Depression Visibility Wind Speed Wind Dir Waves Ship Positions

De Ja Bleu

Owner: PACKARD, WILLIAM H, BAINBRIDGE ISL, WA. More information available from US FCC via Universal Licensing System and Coast Guard Vessel Documentation Center.

Last reported at 2017-Dec-10 19:47 UTC. Time now 2017-Dec-12 06:40 UTC.
Position N 47°39' W 122°20'.

Length 14 m.

Type: Pleasure craft. MMSI: 367707510.

Date/timePositionNaut miles runAvg speedWind from/ knotsBaromVisibWave heightAir tempDewpointWater temp
2017-Dec-10 19:47N 47°39' W 122°20'1 5.5
2017-Dec-10 19:30N 47°39' W 122°22'2 3.2
2017-Dec-10 18:59N 47°40' W 122°24'2 4.8
2017-Dec-10 18:30N 47°42' W 122°26'3 6.9
2017-Dec-10 18:00N 47°45' W 122°28'4 7.3
2017-Dec-10 17:30N 47°49' W 122°28'4 7.7
2017-Dec-10 17:00N 47°53' W 122°30'4 0.1
2017-Dec-08 20:53N 47°56' W 122°33'3 8.4
2017-Dec-08 20:30N 47°53' W 122°30'4 7.5
2017-Dec-08 20:00N 47°50' W 122°28'5 7.2
2017-Dec-08 19:15N 47°44' W 122°28'2 7.4
2017-Dec-08 18:58N 47°42' W 122°28'5 7.2
2017-Dec-08 18:13N 47°37' W 122°28'1 6.5
2017-Dec-08 18:01N 47°36' W 122°30'  

Dump ship's entire track history